Airfield :
LOGIN :

Register | Disclaimer

   EN    FR    IT 

 










Legend :    VFR   Marginal VFR   IFR   Intensive IFR   Very Intensive IFR
Visi :
Ceiling :
>= 8 km
>= 3000ft
5 to 8 km
1000 to 3000 ft
1500m to 5 km
500 to 1000 ft
800 to 1500m
200 to 500 ft
< 800m
< 200 ft
Symbols :   Thunderstorms  Fog  Heavy snow  Heavy precipitations  Wind > 20 kt
SIGMETs :     Misc.  Thunderstorms  Icing  Turbulence  Mountain Waves  Volcanic Ashes






- Airport Elevation : 195 ft


LFMY - Salon de Provence

CURRENT METAR :
  • 120900Z AUTO 15004KT 120V180 9999 // NSC 30/13 Q1016

EXPIRED METARs :
  • 120830Z AUTO 16006KT 120V190 9999 // NSC 29/13 Q1016
  • 120800Z AUTO VRB01KT 9999 // NSC 29/15 Q1016
  • 120730Z AUTO 05003KT 020V080 9999 // NSC 27/16 Q1016
  • 120700Z AUTO 00000KT 9999 // NSC 25/16 Q1016
  • 120630Z AUTO 00000KT 9999 // NSC 23/16 Q1016

TAF TAF LFMY
Valid from the 12 at 09:00 until the 13 at 09:00 UTC


120800Z 1209/1309 18012KT CAVOK
BECMG 1219/1221 10005KT
TEMPO 1306/1309 SCT070TCU
PROB40
TEMPO 1306/1309 SHRA



MET'MAP, your aeronautical weather chart ! - Copyright ORBIFLY December 2007 - Disclaimer

ORBIFLY MET'MAP TEAM :

Programming & Development : Alexandra Zaïnal
Concept & original design : Baudouin d'Aumeries
Assistance for programming : Marc-Olivier Méhu
Technical & hardware support : Manuel Goepfert

Contact : metmap@orbifly.com




SOURCES & CREDITS :

   NOAA